Beso — WDB7855 — position and weather

sailwx.info

Track history (hours):
 
Tides and Currents Weather Stations Pressure Air Temp Water Temp Dewpoint Dewpoint Depression Visibility Wind Speed Wind Dir Waves Ship Positions

Beso

Owner: Marsh, Richard C, Santa Barbara, CA. More information available from US FCC via Universal Licensing System and Coast Guard Vessel Documentation Center.

Last reported at 2018-Apr-23 17:27 UTC. Time now 2018-Apr-26 11:21 UTC.
Position N 33°50' W 119°11'.

Length 12 m.

Type: Pleasure craft. MMSI: 366948820.

Date/timePositionNaut miles runAvg speedWind from/ knotsBaromVisibWave heightAir tempDewpointWater temp
2018-Apr-23 17:27N 33°50' W 119°11'3 6.3
2018-Apr-23 16:56N 33°51' W 119°14'9 6.1
2018-Apr-23 15:25N 33°56' W 119°24'3 6.4
2018-Apr-23 14:53N 33°58' W 119°27'5 0.3
2018-Apr-22 21:49N 34°02' W 119°31'2 6.3
2018-Apr-22 21:29N 34°04' W 119°32'3 7.0
2018-Apr-22 21:00N 34°07' W 119°33'3 6.6
2018-Apr-22 20:30N 34°10' W 119°35'3 6.3
2018-Apr-22 20:00N 34°13' W 119°37'3 6.7
2018-Apr-22 19:30N 34°16' W 119°37'3 6.7
2018-Apr-22 18:59N 34°19' W 119°39'3 6.8
2018-Apr-22 18:30N 34°23' W 119°40'2 0.2
2018-Apr-22 08:34N 34°24' W 119°42'0 0.0
2018-Apr-22 08:22N 34°24' W 119°42'0 0.0
2018-Apr-22 07:10N 34°24' W 119°42'  
2018-Apr-16 04:38N 34°24' W 119°42'0 0.0
2018-Apr-15 17:32N 34°24' W 119°42'0 0.0
2018-Apr-15 15:44N 34°24' W 119°42'0 0.0
2018-Apr-13 19:44N 34°24' W 119°42'0 0.0
2018-Apr-13 19:14N 34°24' W 119°42'  
Track history (hours):
 
Tides and Currents Weather Stations Pressure Air Temp Water Temp Dewpoint Dewpoint Depression Visibility Wind Speed Wind Dir Waves Ship Positions

Beso

Owner: Marsh, Richard C, Santa Barbara, CA. More information available from US FCC via Universal Licensing System and Coast Guard Vessel Documentation Center.

Last reported at 2018-Apr-23 17:27 UTC. Time now 2018-Apr-26 11:21 UTC.
Position N 33°50' W 119°11'.

Length 12 m.

Type: Pleasure craft. MMSI: 366948820.

Date/timePositionNaut miles runAvg speedWind from/ knotsBaromVisibWave heightAir tempDewpointWater temp
2018-Apr-23 17:27N 33°50' W 119°11'3 6.3
2018-Apr-23 16:56N 33°51' W 119°14'9 6.1
2018-Apr-23 15:25N 33°56' W 119°24'3 6.4
2018-Apr-23 14:53N 33°58' W 119°27'5 0.3
2018-Apr-22 21:49N 34°02' W 119°31'2 6.3
2018-Apr-22 21:29N 34°04' W 119°32'3 7.0
2018-Apr-22 21:00N 34°07' W 119°33'3 6.6
2018-Apr-22 20:30N 34°10' W 119°35'3 6.3
2018-Apr-22 20:00N 34°13' W 119°37'3 6.7
2018-Apr-22 19:30N 34°16' W 119°37'3 6.7
2018-Apr-22 18:59N 34°19' W 119°39'3 6.8
2018-Apr-22 18:30N 34°23' W 119°40'2 0.2
2018-Apr-22 08:34N 34°24' W 119°42'0 0.0
2018-Apr-22 08:22N 34°24' W 119°42'0 0.0
2018-Apr-22 07:10N 34°24' W 119°42'  
2018-Apr-16 04:38N 34°24' W 119°42'0 0.0
2018-Apr-15 17:32N 34°24' W 119°42'0 0.0
2018-Apr-15 15:44N 34°24' W 119°42'0 0.0
2018-Apr-13 19:44N 34°24' W 119°42'0 0.0
2018-Apr-13 19:14N 34°24' W 119°42'  

Dump ship's entire track history